Time;durP1;ratioP1;P1;durP2;ratioP2;P2;SDS_P1;SDS_P2;PMS_P1;PMS_P2;Temp;Humidity;BMP_temperature;BMP_pressure;BME280_temperature;BME280_humidity;BME280_pressure;Samples;Min_cycle;Max_cycle;Signal;HPM_P1;HPM_P2
2022/07/30 00:01:17;;;;;;;5.60;5.03;;;;;;;;;;5052761;28;20179;-88
2022/07/30 00:04:23;;;;;;;5.37;4.60;;;;;;;;;;5054328;28;20180;-88
2022/07/30 00:07:27;;;;;;;6.10;5.10;;;;;;;;;;5051922;28;20192;-89
2022/07/30 00:10:31;;;;;;;6.03;4.53;;;;;;;;;;5040294;28;20570;-88
2022/07/30 00:13:35;;;;;;;5.90;5.03;;;;;;;;;;5052292;28;20535;-89
2022/07/30 00:16:39;;;;;;;6.10;4.77;;;;;;;;;;5053810;28;20674;-88
2022/07/30 00:19:43;;;;;;;6.73;4.53;;;;;;;;;;5041885;28;20219;-88
2022/07/30 00:22:48;;;;;;;5.73;4.73;;;;;;;;;;5041366;28;20203;-89
2022/07/30 00:25:53;;;;;;;6.33;4.43;;;;;;;;;;5040755;28;20548;-89
2022/07/30 00:28:57;;;;;;;7.17;5.07;;;;;;;;;;5040677;28;20215;-88
2022/07/30 00:32:01;;;;;;;5.70;4.63;;;;;;;;;;5040157;28;20171;-89
2022/07/30 00:35:06;;;;;;;6.53;4.80;;;;;;;;;;5051550;28;20180;-88
2022/07/30 00:38:10;;;;;;;4.70;4.30;;;;;;;;;;5041517;28;20176;-89
2022/07/30 00:41:14;;;;;;;6.90;4.77;;;;;;;;;;5051485;28;20199;-89
2022/07/30 00:44:18;;;;;;;5.83;4.70;;;;;;;;;;5040712;28;20198;-88
2022/07/30 00:47:23;;;;;;;5.33;4.00;;;;;;;;;;5041719;28;20187;-88
2022/07/30 00:50:27;;;;;;;5.80;4.70;;;;;;;;;;5053164;28;20222;-88
2022/07/30 00:53:32;;;;;;;5.33;4.77;;;;;;;;;;5041403;28;20538;-89
2022/07/30 00:56:36;;;;;;;5.40;4.57;;;;;;;;;;5039371;28;20204;-88
2022/07/30 00:59:40;;;;;;;6.27;4.80;;;;;;;;;;5040951;28;20207;-88
2022/07/30 01:02:45;;;;;;;6.60;4.13;;;;;;;;;;5052169;28;20179;-89
2022/07/30 01:05:50;;;;;;;5.00;4.40;;;;;;;;;;5041470;28;20200;-88
2022/07/30 01:08:54;;;;;;;5.17;4.00;;;;;;;;;;5039430;28;20567;-88
2022/07/30 01:11:58;;;;;;;4.50;4.10;;;;;;;;;;5050960;28;20183;-89
2022/07/30 01:15:05;;;;;;;5.90;4.10;;;;;;;;;;5039103;28;20183;-88
2022/07/30 01:18:12;;;;;;;4.67;4.00;;;;;;;;;;5040705;28;20175;-88
2022/07/30 01:21:22;;;;;;;5.07;4.53;;;;;;;;;;5040072;28;20176;-89
2022/07/30 01:24:35;;;;;;;5.53;4.33;;;;;;;;;;5050924;28;20184;-88
2022/07/30 01:27:44;;;;;;;6.13;4.20;;;;;;;;;;5039584;28;20180;-89
2022/07/30 01:30:50;;;;;;;5.73;3.83;;;;;;;;;;5052966;28;20180;-89
2022/07/30 01:33:55;;;;;;;4.73;4.00;;;;;;;;;;5049955;28;20191;-89
2022/07/30 01:37:01;;;;;;;4.90;3.87;;;;;;;;;;5039841;28;20211;-90
2022/07/30 01:40:06;;;;;;;6.30;4.20;;;;;;;;;;5038351;28;20210;-89
2022/07/30 01:43:11;;;;;;;4.37;3.97;;;;;;;;;;5040137;28;20179;-88
2022/07/30 01:46:17;;;;;;;5.30;4.07;;;;;;;;;;5062541;28;20171;-89
2022/07/30 01:49:25;;;;;;;5.73;4.40;;;;;;;;;;5040474;28;20215;-87
2022/07/30 01:52:32;;;;;;;4.40;4.00;;;;;;;;;;5039576;28;20171;-88
2022/07/30 01:55:39;;;;;;;5.43;3.50;;;;;;;;;;5040906;28;20172;-89
2022/07/30 01:58:47;;;;;;;6.60;4.07;;;;;;;;;;5038292;28;20278;-88
2022/07/30 02:01:57;;;;;;;4.93;4.43;;;;;;;;;;5041109;28;20195;-88
2022/07/30 02:05:02;;;;;;;4.67;3.53;;;;;;;;;;5051136;28;20183;-88
2022/07/30 02:08:13;;;;;;;4.20;3.80;;;;;;;;;;5039504;28;20176;-88
2022/07/30 02:12:27;;;;;;;4.30;3.90;;;;;;;;;;5051315;28;20179;-88
2022/07/30 02:14:51;;;;;;;4.97;4.47;;;;;;;;;;5050570;28;20547;-88
2022/07/30 02:18:06;;;;;;;5.63;4.10;;;;;;;;;;5062059;28;20211;-88
2022/07/30 02:21:11;;;;;;;4.40;3.80;;;;;;;;;;5039735;28;20191;-88
2022/07/30 02:24:20;;;;;;;7.50;3.80;;;;;;;;;;5039233;28;20179;-88
2022/07/30 02:27:29;;;;;;;5.17;3.53;;;;;;;;;;5039342;28;20176;-88
2022/07/30 02:30:36;;;;;;;3.87;3.47;;;;;;;;;;5050479;28;20215;-87
2022/07/30 02:33:42;;;;;;;4.50;3.60;;;;;;;;;;5050696;28;20179;-89
2022/07/30 02:36:48;;;;;;;5.20;3.60;;;;;;;;;;5050514;28;20211;-89
2022/07/30 02:39:54;;;;;;;4.47;4.00;;;;;;;;;;5050759;28;20563;-89
2022/07/30 02:42:59;;;;;;;4.83;3.97;;;;;;;;;;5050791;28;20171;-89
2022/07/30 02:46:06;;;;;;;4.23;3.83;;;;;;;;;;5038919;28;20176;-89
2022/07/30 02:49:34;;;;;;;6.03;4.10;;;;;;;;;;5052777;28;20227;-89
2022/07/30 02:52:40;;;;;;;4.33;3.93;;;;;;;;;;5041936;28;20179;-89
2022/07/30 02:55:47;;;;;;;4.60;3.70;;;;;;;;;;5054436;28;20203;-90
2022/07/30 02:58:53;;;;;;;3.90;3.50;;;;;;;;;;5042643;28;20223;-90
2022/07/30 03:01:58;;;;;;;4.93;4.13;;;;;;;;;;5042858;28;20630;-89
2022/07/30 03:05:04;;;;;;;5.33;3.93;;;;;;;;;;5053418;28;20199;-90
2022/07/30 03:08:09;;;;;;;5.67;3.90;;;;;;;;;;5053600;28;20195;-88
2022/07/30 03:11:16;;;;;;;4.20;3.80;;;;;;;;;;5056017;28;20515;-87
2022/07/30 03:14:20;;;;;;;4.93;3.57;;;;;;;;;;5043287;28;20179;-88
2022/07/30 03:17:30;;;;;;;4.80;4.30;;;;;;;;;;5053527;28;20211;-88
2022/07/30 03:20:35;;;;;;;5.80;4.30;;;;;;;;;;5041387;28;20215;-89
2022/07/30 03:23:44;;;;;;;5.30;4.53;;;;;;;;;;5042401;28;20175;-88
2022/07/30 03:26:51;;;;;;;5.57;4.90;;;;;;;;;;5041468;28;20622;-89
2022/07/30 03:29:56;;;;;;;5.57;4.17;;;;;;;;;;5064564;28;20211;-89
2022/07/30 03:33:01;;;;;;;4.50;4.10;;;;;;;;;;5052919;28;20188;-89
2022/07/30 03:36:07;;;;;;;5.10;4.33;;;;;;;;;;5041202;28;20175;-89
2022/07/30 03:39:12;;;;;;;4.90;4.20;;;;;;;;;;5053058;28;20566;-88
2022/07/30 03:42:16;;;;;;;5.60;4.53;;;;;;;;;;5042139;28;20195;-88
2022/07/30 03:45:21;;;;;;;4.83;4.33;;;;;;;;;;5041841;28;20195;-88
2022/07/30 03:48:26;;;;;;;5.57;5.07;;;;;;;;;;5052365;28;20180;-89
2022/07/30 03:51:35;;;;;;;7.17;4.83;;;;;;;;;;5042123;28;20179;-88
2022/07/30 03:54:40;;;;;;;5.20;4.70;;;;;;;;;;5041958;28;20199;-88
2022/07/30 03:58:03;;;;;;;5.33;4.77;;;;;;;;;;5054548;28;20207;-89
2022/07/30 04:01:09;;;;;;;5.07;4.57;;;;;;;;;;5041247;28;20171;-89
2022/07/30 04:04:14;;;;;;;5.43;4.47;;;;;;;;;;5051170;28;20572;-88
2022/07/30 04:07:18;;;;;;;6.50;4.10;;;;;;;;;;5052560;28;20197;-89
2022/07/30 04:10:22;;;;;;;5.47;4.67;;;;;;;;;;5051392;28;20218;-89
2022/07/30 04:13:35;;;;;;;5.67;4.50;;;;;;;;;;5055209;28;20184;-88
2022/07/30 04:17:05;;;;;;;5.53;4.83;;;;;;;;;;5040419;28;20219;-89
2022/07/30 04:20:21;;;;;;;4.77;4.27;;;;;;;;;;5040127;28;20219;-88
2022/07/30 04:23:25;;;;;;;5.77;4.87;;;;;;;;;;5042129;28;20511;-88
2022/07/30 04:26:35;;;;;;;6.23;5.60;;;;;;;;;;5063787;28;20180;-88
2022/07/30 04:29:40;;;;;;;6.17;4.90;;;;;;;;;;5051204;28;20219;-89
2022/07/30 04:32:45;;;;;;;6.13;4.60;;;;;;;;;;5051371;28;20183;-89
2022/07/30 04:36:09;;;;;;;5.00;4.60;;;;;;;;;;5055030;28;20175;-90
2022/07/30 04:39:14;;;;;;;4.53;4.13;;;;;;;;;;5039733;28;20211;-89
2022/07/30 04:42:19;;;;;;;6.47;5.00;;;;;;;;;;5051215;28;20175;-87
2022/07/30 04:45:34;;;;;;;4.33;3.93;;;;;;;;;;5040719;28;20622;-90
2022/07/30 04:48:40;;;;;;;7.50;3.90;;;;;;;;;;5040070;28;20219;-88
2022/07/30 04:51:48;;;;;;;4.67;4.27;;;;;;;;;;5051834;28;20179;-87
2022/07/30 04:54:58;;;;;;;5.23;4.73;;;;;;;;;;5062474;28;20183;-87
2022/07/30 04:58:03;;;;;;;5.37;4.20;;;;;;;;;;5050961;28;20212;-88
2022/07/30 05:01:11;;;;;;;4.97;3.80;;;;;;;;;;5040067;28;20175;-88
2022/07/30 05:04:17;;;;;;;4.23;3.93;;;;;;;;;;5039354;28;20176;-88
2022/07/30 05:07:23;;;;;;;5.10;4.13;;;;;;;;;;5039487;28;20172;-88
2022/07/30 05:10:28;;;;;;;7.90;4.47;;;;;;;;;;5050380;28;20215;-88
2022/07/30 05:13:32;;;;;;;5.90;4.37;;;;;;;;;;5039100;28;20191;-88
2022/07/30 05:16:37;;;;;;;5.63;4.57;;;;;;;;;;5039308;28;20175;-88
2022/07/30 05:19:40;;;;;;;6.70;4.93;;;;;;;;;;5039272;28;20218;-89
2022/07/30 05:22:44;;;;;;;6.03;4.67;;;;;;;;;;5050507;28;20184;-89
2022/07/30 05:25:48;;;;;;;5.27;4.60;;;;;;;;;;5050252;28;20183;-87
2022/07/30 05:29:01;;;;;;;5.30;4.80;;;;;;;;;;5040435;28;20211;-87
2022/07/30 05:32:19;;;;;;;6.23;5.27;;;;;;;;;;5052363;28;20511;-87
2022/07/30 05:35:24;;;;;;;8.57;5.50;;;;;;;;;;5050310;28;20175;-87
2022/07/30 05:38:28;;;;;;;7.10;6.00;;;;;;;;;;5038619;28;20211;-89
2022/07/30 05:41:55;;;;;;;7.93;5.40;;;;;;;;;;5053338;28;20180;-87
2022/07/30 05:45:04;;;;;;;7.20;5.33;;;;;;;;;;5050533;28;20195;-87
2022/07/30 05:48:09;;;;;;;7.23;5.20;;;;;;;;;;5039463;28;20195;-87
2022/07/30 05:51:13;;;;;;;5.50;4.40;;;;;;;;;;5050435;28;20187;-87
2022/07/30 05:54:17;;;;;;;7.00;5.10;;;;;;;;;;5050863;28;20520;-86
2022/07/30 05:57:41;;;;;;;5.13;4.63;;;;;;;;;;5053302;28;20210;-86
2022/07/30 06:00:45;;;;;;;5.70;5.20;;;;;;;;;;5038773;28;20183;-87
2022/07/30 06:03:49;;;;;;;5.73;4.83;;;;;;;;;;5039664;28;20179;-86
2022/07/30 06:07:18;;;;;;;11.60;5.97;;;;;;;;;;5061701;28;20175;-87
2022/07/30 06:10:23;;;;;;;6.07;5.20;;;;;;;;;;5039452;28;20220;-86
2022/07/30 06:13:27;;;;;;;9.13;5.37;;;;;;;;;;5039392;28;20175;-87
2022/07/30 06:16:31;;;;;;;7.80;5.40;;;;;;;;;;5049967;28;20184;-87
2022/07/30 06:19:36;;;;;;;7.27;5.53;;;;;;;;;;5038917;28;20575;-89
2022/07/30 06:22:40;;;;;;;6.50;5.63;;;;;;;;;;5038668;28;20508;-87
2022/07/30 06:25:49;;;;;;;7.37;6.13;;;;;;;;;;5050169;28;20626;-87
2022/07/30 06:28:53;;;;;;;11.10;6.67;;;;;;;;;;5053582;28;20211;-87
2022/07/30 06:32:05;;;;;;;6.20;5.60;;;;;;;;;;5042985;28;20190;-87
2022/07/30 06:35:09;;;;;;;7.23;6.07;;;;;;;;;;5053330;28;20171;-87
2022/07/30 06:38:17;;;;;;;8.00;6.67;;;;;;;;;;5042167;28;20215;-87
2022/07/30 06:41:37;;;;;;;9.50;7.17;;;;;;;;;;5044407;28;20180;-90
2022/07/30 06:44:41;;;;;;;7.13;5.73;;;;;;;;;;5053698;28;20180;-88
2022/07/30 06:47:59;;;;;;;10.17;7.00;;;;;;;;;;5043457;28;20180;-87
2022/07/30 06:51:05;;;;;;;6.37;5.77;;;;;;;;;;5042237;28;20204;-87
2022/07/30 06:54:10;;;;;;;8.03;6.60;;;;;;;;;;5041572;28;20199;-87
2022/07/30 06:57:14;;;;;;;6.17;5.57;;;;;;;;;;5053114;28;20175;-87
2022/07/30 07:00:20;;;;;;;6.67;5.40;;;;;;;;;;5041848;28;20207;-88
2022/07/30 07:03:25;;;;;;;7.10;6.30;;;;;;;;;;5053312;28;20179;-88
2022/07/30 07:06:31;;;;;;;6.67;5.73;;;;;;;;;;5041809;28;20531;-90
2022/07/30 07:09:36;;;;;;;7.07;5.70;;;;;;;;;;5042008;28;20215;-87
2022/07/30 07:13:16;;;;;;;7.13;5.20;;;;;;;;;;5063866;28;20200;-86
2022/07/30 07:16:23;;;;;;;6.60;5.20;;;;;;;;;;5041567;28;20670;-87
2022/07/30 07:19:28;;;;;;;8.70;5.20;;;;;;;;;;5041463;28;20697;-87
2022/07/30 07:22:32;;;;;;;6.37;4.87;;;;;;;;;;5041598;28;20516;-88
2022/07/30 07:25:36;;;;;;;4.87;4.37;;;;;;;;;;5052956;28;20180;-88
2022/07/30 07:28:40;;;;;;;6.97;5.03;;;;;;;;;;5053595;28;20207;-85
2022/07/30 07:31:45;;;;;;;5.40;4.70;;;;;;;;;;5042019;28;20184;-85
2022/07/30 07:34:49;;;;;;;4.70;4.30;;;;;;;;;;5052899;28;20176;-85
2022/07/30 07:37:53;;;;;;;5.73;4.07;;;;;;;;;;5040583;28;20207;-85
2022/07/30 07:41:00;;;;;;;6.50;4.67;;;;;;;;;;5064373;28;20197;-85
2022/07/30 07:44:05;;;;;;;5.00;3.93;;;;;;;;;;5041165;28;20176;-85
2022/07/30 07:47:11;;;;;;;6.67;3.67;;;;;;;;;;5041268;28;20180;-85
2022/07/30 07:50:22;;;;;;;8.63;4.70;;;;;;;;;;5042199;28;20219;-85
2022/07/30 07:53:26;;;;;;;7.10;4.30;;;;;;;;;;5052330;28;20179;-85
2022/07/30 07:56:31;;;;;;;6.87;4.43;;;;;;;;;;5041453;28;20179;-85
2022/07/30 07:59:35;;;;;;;5.13;4.57;;;;;;;;;;5041526;28;20252;-85
2022/07/30 08:02:40;;;;;;;7.27;4.40;;;;;;;;;;5064003;23;20704;-86
2022/07/30 08:05:45;;;;;;;6.27;4.27;;;;;;;;;;5039228;28;20181;-85
2022/07/30 08:09:00;;;;;;;6.30;4.50;;;;;;;;;;5063023;28;20183;-86
2022/07/30 08:12:42;;;;;;;5.53;3.73;;;;;;;;;;5047904;28;20223;-87
2022/07/30 08:17:23;;;;;;;8.23;3.83;;;;;;;;;;5054946;28;20183;-89
2022/07/30 08:20:56;;;;;;;5.20;3.40;;;;;;;;;;5042824;28;20222;-88
2022/07/30 08:24:06;;;;;;;6.17;3.90;;;;;;;;;;5042843;28;20212;-88
2022/07/30 08:27:10;;;;;;;4.10;3.70;;;;;;;;;;5042322;28;20200;-88
2022/07/30 08:30:57;;;;;;;3.97;3.20;;;;;;;;;;5042534;28;20179;-88
2022/07/30 08:34:17;;;;;;;6.07;3.63;;;;;;;;;;5054802;28;20181;-88
2022/07/30 08:37:22;;;;;;;3.45;3.13;;;;;;;;;;5042641;28;20180;-88
2022/07/30 08:40:26;;;;;;;4.68;3.15;;;;;;;;;;5042561;28;20173;-88
2022/07/30 08:43:38;;;;;;;5.18;3.80;;;;;;;;;;5042701;28;20199;-89
2022/07/30 08:46:45;;;;;;;8.13;3.45;;;;;;;;;;5042370;28;20185;-88
2022/07/30 08:50:18;;;;;;;4.22;3.78;;;;;;;;;;5042185;28;20188;-88
2022/07/30 08:53:40;;;;;;;8.43;3.05;;;;;;;;;;5042380;28;20192;-88
2022/07/30 08:56:48;;;;;;;4.70;3.10;;;;;;;;;;5042139;28;20172;-88
2022/07/30 08:59:53;;;;;;;4.82;3.25;;;;;;;;;;5042146;28;20210;-88
2022/07/30 09:02:58;;;;;;;11.05;3.58;;;;;;;;;;5041699;28;20179;-88
2022/07/30 09:06:03;;;;;;;4.55;2.88;;;;;;;;;;5042350;28;20184;-89
2022/07/30 09:09:08;;;;;;;8.05;3.35;;;;;;;;;;5031661;28;20199;-85
2022/07/30 09:12:30;;;;;;;3.85;3.08;;;;;;;;;;5043207;28;20223;-85
2022/07/30 09:15:37;;;;;;;4.00;3.28;;;;;;;;;;5042133;28;20185;-88
2022/07/30 09:18:43;;;;;;;4.68;3.10;;;;;;;;;;5042215;28;20208;-85
2022/07/30 09:21:59;;;;;;;6.53;3.28;;;;;;;;;;5041506;28;20218;-88
2022/07/30 09:25:48;;;;;;;4.75;3.45;;;;;;;;;;5053543;28;20521;-88
2022/07/30 09:29:31;;;;;;;5.03;3.25;;;;;;;;;;5045952;28;20184;-88
2022/07/30 09:32:55;;;;;;;4.55;3.28;;;;;;;;;;5043030;28;20188;-88
2022/07/30 09:36:18;;;;;;;2.88;2.55;;;;;;;;;;5041881;28;20179;-88
2022/07/30 09:39:54;;;;;;;8.43;3.28;;;;;;;;;;5041676;28;20205;-88
2022/07/30 09:43:09;;;;;;;5.10;2.45;;;;;;;;;;5042231;28;20530;-85
2022/07/30 09:46:42;;;;;;;4.55;3.00;;;;;;;;;;5041859;28;20209;-91
2022/07/30 09:50:01;;;;;;;5.60;2.92;;;;;;;;;;5053034;28;20187;-89
2022/07/30 09:53:08;;;;;;;3.55;2.95;;;;;;;;;;5030302;28;20194;-89
2022/07/30 09:56:26;;;;;;;4.20;2.92;;;;;;;;;;5041425;28;20187;-89
2022/07/30 09:59:31;;;;;;;4.80;3.10;;;;;;;;;;5041395;28;20212;-89
2022/07/30 10:02:35;;;;;;;4.40;2.40;;;;;;;;;;5044499;28;20697;-89
2022/07/30 10:05:57;;;;;;;4.63;2.63;;;;;;;;;;5058081;28;20186;-88
2022/07/30 10:09:01;;;;;;;4.93;2.88;;;;;;;;;;5045657;28;20515;-88
2022/07/30 10:12:09;;;;;;;5.68;3.00;;;;;;;;;;5045217;28;20558;-89
2022/07/30 10:15:17;;;;;;;7.47;2.83;;;;;;;;;;5045629;28;20176;-89
2022/07/30 10:18:23;;;;;;;5.53;2.72;;;;;;;;;;5045324;28;20211;-88
2022/07/30 10:22:04;;;;;;;3.72;2.55;;;;;;;;;;4980121;28;20222;-85
2022/07/30 10:25:40;;;;;;;4.32;2.35;;;;;;;;;;5032556;28;20204;-86
2022/07/30 10:29:03;;;;;;;3.33;2.00;;;;;;;;;;5057553;28;20177;-85
2022/07/30 10:32:07;;;;;;;4.85;2.40;;;;;;;;;;5044577;28;20216;-88
2022/07/30 10:35:13;;;;;;;2.75;2.00;;;;;;;;;;5045121;28;20180;-88
2022/07/30 10:38:21;;;;;;;4.03;2.55;;;;;;;;;;5033418;28;20184;-88
2022/07/30 10:42:03;;;;;;;4.43;2.13;;;;;;;;;;5044703;28;20227;-88
2022/07/30 10:45:18;;;;;;;4.38;2.33;;;;;;;;;;5044977;28;20175;-88
2022/07/30 10:48:23;;;;;;;5.00;2.20;;;;;;;;;;5044551;28;20528;-88
2022/07/30 10:52:00;;;;;;;2.80;1.80;;;;;;;;;;5044493;28;20220;-88
2022/07/30 10:55:14;;;;;;;3.33;1.70;;;;;;;;;;5027347;28;20666;-88
2022/07/30 10:58:19;;;;;;;4.35;1.85;;;;;;;;;;5044596;28;20619;-88
2022/07/30 11:01:23;;;;;;;3.50;1.77;;;;;;;;;;5043928;28;20231;-88
2022/07/30 11:04:28;;;;;;;3.15;1.60;;;;;;;;;;5044776;28;20200;-88
2022/07/30 11:07:32;;;;;;;3.15;1.58;;;;;;;;;;5055728;28;20203;-88
2022/07/30 11:10:39;;;;;;;3.40;1.55;;;;;;;;;;5043917;28;20192;-88
2022/07/30 11:13:53;;;;;;;2.97;1.75;;;;;;;;;;5044108;28;20186;-88
2022/07/30 11:16:58;;;;;;;3.13;1.83;;;;;;;;;;5044137;28;20179;-88
2022/07/30 11:20:06;;;;;;;1.95;1.42;;;;;;;;;;5043578;28;20551;-88
2022/07/30 11:23:19;;;;;;;2.00;1.60;;;;;;;;;;5044194;28;20183;-88
2022/07/30 11:26:38;;;;;;;2.33;1.58;;;;;;;;;;5043666;28;20188;-88
2022/07/30 11:29:44;;;;;;;5.78;1.80;;;;;;;;;;5055346;28;20524;-88
2022/07/30 11:32:49;;;;;;;2.65;1.70;;;;;;;;;;5043225;28;20208;-88
2022/07/30 11:36:08;;;;;;;2.63;1.45;;;;;;;;;;5043761;28;20631;-88
2022/07/30 11:39:12;;;;;;;2.47;1.75;;;;;;;;;;5043829;28;20215;-88
2022/07/30 11:42:36;;;;;;;3.60;1.70;;;;;;;;;;5032419;28;20219;-88
2022/07/30 11:45:41;;;;;;;2.45;1.90;;;;;;;;;;5032234;28;20183;-88
2022/07/30 11:49:01;;;;;;;5.45;1.90;;;;;;;;;;5043887;28;20176;-88
2022/07/30 11:52:05;;;;;;;2.60;1.50;;;;;;;;;;5043092;28;20215;-88
2022/07/30 11:55:09;;;;;;;7.55;1.73;;;;;;;;;;5054931;28;20183;-88
2022/07/30 11:58:36;;;;;;;1.40;1.30;;;;;;;;;;5032016;28;20184;-88
2022/07/30 12:01:40;;;;;;;3.67;1.85;;;;;;;;;;5043081;28;20230;-88
2022/07/30 12:04:44;;;;;;;2.58;1.90;;;;;;;;;;5043203;28;20180;-88
2022/07/30 12:07:48;;;;;;;6.75;1.50;;;;;;;;;;5031923;28;20186;-88
2022/07/30 12:10:59;;;;;;;7.72;1.70;;;;;;;;;;5043211;28;20216;-88
2022/07/30 12:14:04;;;;;;;2.30;1.50;;;;;;;;;;5042649;28;20196;-88
2022/07/30 12:17:08;;;;;;;3.85;1.73;;;;;;;;;;5042858;28;20181;-88
2022/07/30 12:20:17;;;;;;;2.00;1.40;;;;;;;;;;5042954;28;20214;-88
2022/07/30 12:23:22;;;;;;;1.73;1.20;;;;;;;;;;5042546;28;20178;-88
2022/07/30 12:26:28;;;;;;;3.35;1.45;;;;;;;;;;5042491;28;20199;-88
2022/07/30 12:29:36;;;;;;;2.85;1.40;;;;;;;;;;5054248;28;20187;-88
2022/07/30 12:32:42;;;;;;;2.70;1.20;;;;;;;;;;5042330;28;20219;-88
2022/07/30 12:35:48;;;;;;;2.13;1.30;;;;;;;;;;5043007;28;20181;-88
2022/07/30 12:38:53;;;;;;;2.60;1.40;;;;;;;;;;5031355;28;20542;-88
2022/07/30 12:41:58;;;;;;;1.85;1.33;;;;;;;;;;5042447;28;20216;-88
2022/07/30 12:45:02;;;;;;;4.00;1.50;;;;;;;;;;5042576;28;20188;-88
2022/07/30 12:48:10;;;;;;;4.47;1.30;;;;;;;;;;5042562;28;20179;-88
2022/07/30 12:51:14;;;;;;;3.58;1.30;;;;;;;;;;5042148;28;20204;-88
2022/07/30 12:54:18;;;;;;;3.55;1.70;;;;;;;;;;5042241;28;20201;-88
2022/07/30 12:57:22;;;;;;;2.72;1.38;;;;;;;;;;5042123;28;20180;-88
2022/07/30 13:00:30;;;;;;;1.50;1.30;;;;;;;;;;5042119;28;20662;-87
2022/07/30 13:03:40;;;;;;;3.30;1.38;;;;;;;;;;5042114;28;20184;-88
2022/07/30 13:07:06;;;;;;;3.40;1.48;;;;;;;;;;5042225;28;20524;-88
2022/07/30 13:10:12;;;;;;;1.98;1.17;;;;;;;;;;5041998;28;20177;-89
2022/07/30 13:13:16;;;;;;;3.25;1.40;;;;;;;;;;5042311;28;20192;-88
2022/07/30 13:16:20;;;;;;;2.40;1.48;;;;;;;;;;5042124;28;20647;-88
2022/07/30 13:19:25;;;;;;;5.65;1.40;;;;;;;;;;5041507;28;20224;-88
2022/07/30 13:22:29;;;;;;;1.50;1.10;;;;;;;;;;5042097;28;20220;-88
2022/07/30 13:25:33;;;;;;;3.88;1.30;;;;;;;;;;5041987;28;20176;-88
2022/07/30 13:28:37;;;;;;;2.33;1.30;;;;;;;;;;5041775;28;20623;-88
2022/07/30 13:31:41;;;;;;;3.75;1.50;;;;;;;;;;5053159;28;20216;-89
2022/07/30 13:34:45;;;;;;;3.00;1.63;;;;;;;;;;5041213;28;20542;-89
2022/07/30 13:37:50;;;;;;;2.85;1.65;;;;;;;;;;5042237;28;20183;-88
2022/07/30 13:40:54;;;;;;;4.10;1.45;;;;;;;;;;5041474;28;20220;-88
2022/07/30 13:43:58;;;;;;;2.80;1.40;;;;;;;;;;5041481;28;20198;-88
2022/07/30 13:51:55;;;;;;;2.53;1.50;;;;;;;;;;5041761;28;20214;-89
2022/07/30 13:55:01;;;;;;;3.58;1.50;;;;;;;;;;5042453;28;20202;-88
2022/07/30 13:58:05;;;;;;;2.65;1.45;;;;;;;;;;5030726;28;20177;-86
2022/07/30 14:01:09;;;;;;;2.05;1.30;;;;;;;;;;5042015;28;20698;-88
2022/07/30 14:04:13;;;;;;;1.67;1.45;;;;;;;;;;5028865;23;20229;-87
2022/07/30 14:07:18;;;;;;;6.55;1.70;;;;;;;;;;4992116;28;20518;-87
2022/07/30 14:10:22;;;;;;;5.50;1.60;;;;;;;;;;5002105;28;20626;-86
2022/07/30 14:13:27;;;;;;;2.42;1.50;;;;;;;;;;5012342;28;20226;-87
2022/07/30 14:16:31;;;;;;;5.60;1.60;;;;;;;;;;4990786;28;20187;-87
2022/07/30 14:19:35;;;;;;;3.60;1.55;;;;;;;;;;5012856;28;20204;-87
2022/07/30 14:22:40;;;;;;;1.58;1.27;;;;;;;;;;5001842;28;20690;-87
2022/07/30 14:25:44;;;;;;;3.17;1.45;;;;;;;;;;5001815;28;20184;-87
2022/07/30 14:28:48;;;;;;;4.03;1.23;;;;;;;;;;5013097;28;20175;-87
2022/07/30 14:31:53;;;;;;;1.90;1.25;;;;;;;;;;5001631;28;20643;-87
2022/07/30 14:34:58;;;;;;;2.15;1.20;;;;;;;;;;5001956;28;20182;-87
2022/07/30 14:38:02;;;;;;;2.75;1.20;;;;;;;;;;5001687;28;20187;-87
2022/07/30 14:41:07;;;;;;;1.83;1.27;;;;;;;;;;5001784;28;20213;-87
2022/07/30 14:44:12;;;;;;;1.33;1.20;;;;;;;;;;4990300;28;20551;-87
2022/07/30 14:47:16;;;;;;;1.52;1.30;;;;;;;;;;5002668;28;20183;-87
2022/07/30 14:50:20;;;;;;;3.00;1.25;;;;;;;;;;5005052;28;20191;-87
2022/07/30 14:53:24;;;;;;;4.13;1.48;;;;;;;;;;5016257;28;20213;-87
2022/07/30 14:56:28;;;;;;;5.45;1.60;;;;;;;;;;5004963;28;20197;-87
2022/07/30 14:59:32;;;;;;;2.50;1.42;;;;;;;;;;5005108;28;20185;-87
2022/07/30 15:02:36;;;;;;;3.95;1.30;;;;;;;;;;5004779;28;20561;-87
2022/07/30 15:05:40;;;;;;;5.43;1.45;;;;;;;;;;5004540;28;20189;-87
2022/07/30 15:08:45;;;;;;;2.35;1.48;;;;;;;;;;5005093;28;20624;-87
2022/07/30 15:11:49;;;;;;;2.13;1.35;;;;;;;;;;5004636;28;20521;-87
2022/07/30 15:14:53;;;;;;;4.70;1.30;;;;;;;;;;4994141;28;20181;-87
2022/07/30 15:17:57;;;;;;;1.65;1.30;;;;;;;;;;5016404;28;20185;-87
2022/07/30 15:21:02;;;;;;;2.33;1.63;;;;;;;;;;5004759;28;20210;-87
2022/07/30 15:24:06;;;;;;;4.15;1.52;;;;;;;;;;5004090;28;20220;-87
2022/07/30 15:27:10;;;;;;;4.47;1.60;;;;;;;;;;5015892;28;20191;-87
2022/07/30 15:30:14;;;;;;;3.22;1.35;;;;;;;;;;5004455;28;20180;-87
2022/07/30 15:33:19;;;;;;;2.53;1.52;;;;;;;;;;5004704;28;20220;-87
2022/07/30 15:36:23;;;;;;;3.53;1.30;;;;;;;;;;5004655;28;20181;-87
2022/07/30 15:39:28;;;;;;;2.00;1.23;;;;;;;;;;5004305;28;20527;-87
2022/07/30 15:42:32;;;;;;;2.55;1.50;;;;;;;;;;5004378;28;20216;-87
2022/07/30 15:45:37;;;;;;;1.70;1.35;;;;;;;;;;5004679;28;20184;-87
2022/07/30 15:48:41;;;;;;;3.17;1.60;;;;;;;;;;5004558;28;20181;-87
2022/07/30 15:51:48;;;;;;;3.80;1.63;;;;;;;;;;5004401;28;20182;-87
2022/07/30 15:54:52;;;;;;;4.20;1.50;;;;;;;;;;5003760;28;20198;-87
2022/07/30 15:57:56;;;;;;;1.77;1.38;;;;;;;;;;5003540;28;20630;-87
2022/07/30 16:01:02;;;;;;;3.05;1.55;;;;;;;;;;5003919;28;20207;-87
2022/07/30 16:04:06;;;;;;;5.97;1.60;;;;;;;;;;5014696;28;20226;-87
2022/07/30 16:07:10;;;;;;;4.53;1.70;;;;;;;;;;5003786;28;20180;-87
2022/07/30 16:10:14;;;;;;;4.20;3.03;;;;;;;;;;5015115;28;20182;-87
2022/07/30 16:13:18;;;;;;;4.05;1.63;;;;;;;;;;5003281;28;20577;-87
2022/07/30 16:16:22;;;;;;;3.15;1.50;;;;;;;;;;5003238;28;20203;-87
2022/07/30 16:19:27;;;;;;;2.97;1.60;;;;;;;;;;5003724;28;20193;-87
2022/07/30 16:22:31;;;;;;;2.90;1.73;;;;;;;;;;5014668;28;20217;-86
2022/07/30 16:25:35;;;;;;;2.40;1.83;;;;;;;;;;4992332;28;20184;-87
2022/07/30 16:28:39;;;;;;;1.63;1.52;;;;;;;;;;5003066;28;20183;-87
2022/07/30 16:31:43;;;;;;;3.72;1.88;;;;;;;;;;5003082;28;20640;-87
2022/07/30 16:34:48;;;;;;;3.53;1.60;;;;;;;;;;5014884;28;20185;-87
2022/07/30 16:37:54;;;;;;;3.83;1.42;;;;;;;;;;5003499;28;20182;-87
2022/07/30 16:40:59;;;;;;;2.80;1.63;;;;;;;;;;5003074;28;20216;-86
2022/07/30 16:44:03;;;;;;;3.60;1.70;;;;;;;;;;5003190;28;20226;-86
2022/07/30 16:47:08;;;;;;;2.38;1.73;;;;;;;;;;5003272;28;20181;-87
2022/07/30 16:50:11;;;;;;;3.73;1.87;;;;;;;;;;5002994;28;20183;-87
2022/07/30 16:53:16;;;;;;;3.20;1.52;;;;;;;;;;5014137;28;20256;-87
2022/07/30 16:56:20;;;;;;;1.87;1.70;;;;;;;;;;5002956;28;20176;-87
2022/07/30 16:59:24;;;;;;;2.13;1.60;;;;;;;;;;5002689;28;20173;-87
2022/07/30 17:02:28;;;;;;;3.23;1.63;;;;;;;;;;5002607;28;20688;-87
2022/07/30 17:05:32;;;;;;;4.70;1.80;;;;;;;;;;5002404;28;20197;-87
2022/07/30 17:08:36;;;;;;;4.47;1.70;;;;;;;;;;5014048;28;20181;-87
2022/07/30 17:11:40;;;;;;;1.83;1.63;;;;;;;;;;5002180;28;20521;-87
2022/07/30 17:14:44;;;;;;;7.73;1.87;;;;;;;;;;5002916;28;20178;-87
2022/07/30 17:17:48;;;;;;;2.40;1.80;;;;;;;;;;5002198;28;20538;-86
2022/07/30 17:20:53;;;;;;;6.10;1.90;;;;;;;;;;5013619;28;20230;-86
2022/07/30 17:23:57;;;;;;;1.70;1.60;;;;;;;;;;5002404;28;20700;-86
2022/07/30 17:27:01;;;;;;;3.33;2.00;;;;;;;;;;5002541;28;20186;-87
2022/07/30 17:30:05;;;;;;;2.57;1.80;;;;;;;;;;5002467;28;20202;-87
2022/07/30 17:33:09;;;;;;;3.03;1.60;;;;;;;;;;5002008;28;20223;-87
2022/07/30 17:36:13;;;;;;;2.30;1.90;;;;;;;;;;5002388;28;20183;-87
2022/07/30 17:39:18;;;;;;;5.70;1.93;;;;;;;;;;5002283;28;20180;-87
2022/07/30 17:42:24;;;;;;;2.17;1.60;;;;;;;;;;5001946;28;20549;-86
2022/07/30 17:45:29;;;;;;;2.23;1.70;;;;;;;;;;5002344;28;20188;-87
2022/07/30 17:48:33;;;;;;;2.67;1.70;;;;;;;;;;5013800;28;20193;-87
2022/07/30 17:51:38;;;;;;;2.23;1.90;;;;;;;;;;5002022;28;20653;-87
2022/07/30 17:54:42;;;;;;;4.83;1.90;;;;;;;;;;5002009;28;20174;-86
2022/07/30 17:57:46;;;;;;;2.63;1.80;;;;;;;;;;5002085;28;20184;-87
2022/07/30 18:00:50;;;;;;;1.90;1.70;;;;;;;;;;5001979;28;20216;-86
2022/07/30 18:03:55;;;;;;;3.50;1.83;;;;;;;;;;5001562;28;20225;-86
2022/07/30 18:06:59;;;;;;;3.87;2.20;;;;;;;;;;5002113;28;20216;-86
2022/07/30 18:10:04;;;;;;;1.93;1.70;;;;;;;;;;5002042;28;20180;-87
2022/07/30 18:13:12;;;;;;;4.17;2.60;;;;;;;;;;4990509;28;20215;-87
2022/07/30 18:16:16;;;;;;;3.47;1.97;;;;;;;;;;5001968;28;20176;-86
2022/07/30 18:19:20;;;;;;;3.90;1.97;;;;;;;;;;5001925;28;20186;-86
2022/07/30 18:22:24;;;;;;;4.53;1.90;;;;;;;;;;5003154;28;20540;-86
2022/07/30 18:25:29;;;;;;;4.30;1.97;;;;;;;;;;5008323;28;20186;-87
2022/07/30 18:28:33;;;;;;;2.77;1.73;;;;;;;;;;5006256;28;20187;-87
2022/07/30 18:31:37;;;;;;;3.33;1.80;;;;;;;;;;5005409;28;20179;-86
2022/07/30 18:34:41;;;;;;;2.33;1.70;;;;;;;;;;5005722;28;20179;-86
2022/07/30 18:37:45;;;;;;;5.50;1.90;;;;;;;;;;5005437;28;20174;-86
2022/07/30 18:40:58;;;;;;;3.70;1.80;;;;;;;;;;5005362;28;20186;-86
2022/07/30 18:44:02;;;;;;;2.13;1.90;;;;;;;;;;5005431;28;20218;-86
2022/07/30 18:47:06;;;;;;;3.80;1.80;;;;;;;;;;5017134;28;20183;-86
2022/07/30 18:50:13;;;;;;;4.57;2.37;;;;;;;;;;5005508;28;20183;-86
2022/07/30 18:53:17;;;;;;;4.03;2.20;;;;;;;;;;5016286;28;20214;-86